Terminal Aerodrome Forecast
Issued by NWS

Home | Current Version | Previous Version | Text Only | Print | Product List | Glossary On
Versions: 1 2 3 4 5 6 7 8 9 10 11 12 13
000
FTUS43 KDTX 262331
TAFDET
TAF
KDET 262331Z 2700/2724 19005KT P6SM BKN120
     FM271400 08005KT P6SM SCT045 BKN200
     FM272000 06007KT P6SM BKN050=

USA.gov is the U.S. government's official web portal to all federal, state and local government web resources and services.